Terminal Aerodrome Forecast
Issued by NWS Jackson, MS

Home | Current Version | Previous Version | Text Only | Print | Product List | Glossary On
Versions: 1 2 3 4 5 6 7 8 9 10 11 12 13 14
839
FTUS44 KMEG 300526
TAFTUP
TAF
KTUP 300526Z 3006/0106 15006KT P6SM OVC150
      TEMPO 3009/3013 4SM BR
     FM301600 20012G20KT P6SM VCTS SCT050CB BKN150
      TEMPO 3019/3022 3SM TSRA BKN025CB OVC050
     FM010400 18007KT 5SM BR OVC015=

USA.gov is the U.S. government's official web portal to all federal, state and local government web resources and services.